Terminal Aerodrome Forecast
Issued by NWS

Home | Current Version | Previous Version | Text Only | Print | Product List | Glossary On
Versions: 1 2 3 4 5 6 7 8 9 10 11 12 13 14
000
FTUS45 KREV 262321
TAFRNO
TAF
KRNO 262321Z 2700/2724 16008KT P6SM SCT100 BKN200
      TEMPO 2700/2702 VRB20G35KT -TSRA BKN100CB BKN150
     FM270200 26011KT P6SM VCSH BKN090 OVC140
     FM270700 VRB04KT P6SM SCT100 SCT150
     FM271800 24015G27KT P6SM SCT150=

USA.gov is the U.S. government's official web portal to all federal, state and local government web resources and services.